sensor_id;sensor_type;location;lat;lon;timestamp;P1;durP1;ratioP1;P2;durP2;ratioP2
25982;SDS011;13773;48.868;10.730;2022-12-07T00:01:06;14.47;;;12.03;;
25982;SDS011;13773;48.868;10.730;2022-12-07T00:03:40;16.07;;;11.97;;
25982;SDS011;13773;48.868;10.730;2022-12-07T00:06:07;15.90;;;12.10;;
25982;SDS011;13773;48.868;10.730;2022-12-07T00:08:35;15.77;;;12.20;;
25982;SDS011;13773;48.868;10.730;2022-12-07T00:11:07;15.43;;;12.73;;
25982;SDS011;13773;48.868;10.730;2022-12-07T00:13:34;15.97;;;12.60;;
25982;SDS011;13773;48.868;10.730;2022-12-07T00:16:01;17.23;;;12.93;;
25982;SDS011;13773;48.868;10.730;2022-12-07T00:18:30;16.30;;;12.93;;
25982;SDS011;13773;48.868;10.730;2022-12-07T00:21:00;19.13;;;12.67;;
25982;SDS011;13773;48.868;10.730;2022-12-07T00:23:27;15.13;;;12.13;;
25982;SDS011;13773;48.868;10.730;2022-12-07T00:25:54;15.63;;;12.30;;
25982;SDS011;13773;48.868;10.730;2022-12-07T00:28:19;15.50;;;12.23;;
25982;SDS011;13773;48.868;10.730;2022-12-07T00:30:45;14.67;;;12.50;;
25982;SDS011;13773;48.868;10.730;2022-12-07T00:33:11;14.50;;;11.60;;
25982;SDS011;13773;48.868;10.730;2022-12-07T00:35:36;16.03;;;12.53;;
25982;SDS011;13773;48.868;10.730;2022-12-07T00:38:02;15.97;;;12.00;;
25982;SDS011;13773;48.868;10.730;2022-12-07T00:40:28;14.83;;;12.70;;
25982;SDS011;13773;48.868;10.730;2022-12-07T00:42:53;16.87;;;12.93;;
25982;SDS011;13773;48.868;10.730;2022-12-07T00:45:19;15.47;;;12.17;;
25982;SDS011;13773;48.868;10.730;2022-12-07T00:47:45;16.33;;;12.60;;
25982;SDS011;13773;48.868;10.730;2022-12-07T00:50:10;18.90;;;13.10;;
25982;SDS011;13773;48.868;10.730;2022-12-07T00:52:36;15.47;;;12.60;;
25982;SDS011;13773;48.868;10.730;2022-12-07T00:55:02;16.30;;;12.73;;
25982;SDS011;13773;48.868;10.730;2022-12-07T00:57:28;16.83;;;12.80;;
25982;SDS011;13773;48.868;10.730;2022-12-07T00:59:55;14.97;;;12.53;;
25982;SDS011;13773;48.868;10.730;2022-12-07T01:02:22;16.67;;;13.50;;
25982;SDS011;13773;48.868;10.730;2022-12-07T01:04:48;15.97;;;13.07;;
25982;SDS011;13773;48.868;10.730;2022-12-07T01:07:14;17.17;;;13.07;;
25982;SDS011;13773;48.868;10.730;2022-12-07T01:09:39;16.13;;;12.70;;
25982;SDS011;13773;48.868;10.730;2022-12-07T01:12:05;17.87;;;14.10;;
25982;SDS011;13773;48.868;10.730;2022-12-07T01:14:31;17.93;;;14.20;;
25982;SDS011;13773;48.868;10.730;2022-12-07T01:16:56;17.20;;;13.40;;
25982;SDS011;13773;48.868;10.730;2022-12-07T01:19:22;16.87;;;14.00;;
25982;SDS011;13773;48.868;10.730;2022-12-07T01:21:48;16.60;;;13.07;;
25982;SDS011;13773;48.868;10.730;2022-12-07T01:24:13;17.60;;;13.33;;
25982;SDS011;13773;48.868;10.730;2022-12-07T01:26:39;17.37;;;13.97;;
25982;SDS011;13773;48.868;10.730;2022-12-07T01:29:06;19.37;;;13.93;;
25982;SDS011;13773;48.868;10.730;2022-12-07T01:31:31;17.83;;;13.63;;
25982;SDS011;13773;48.868;10.730;2022-12-07T01:33:58;18.27;;;14.43;;
25982;SDS011;13773;48.868;10.730;2022-12-07T01:36:26;19.33;;;14.73;;
25982;SDS011;13773;48.868;10.730;2022-12-07T01:38:55;19.17;;;14.00;;
25982;SDS011;13773;48.868;10.730;2022-12-07T01:41:24;20.03;;;15.13;;
25982;SDS011;13773;48.868;10.730;2022-12-07T01:46:39;20.60;;;16.00;;
25982;SDS011;13773;48.868;10.730;2022-12-07T01:49:06;20.77;;;15.50;;
25982;SDS011;13773;48.868;10.730;2022-12-07T01:51:37;19.50;;;15.30;;
25982;SDS011;13773;48.868;10.730;2022-12-07T01:54:06;21.30;;;16.30;;
25982;SDS011;13773;48.868;10.730;2022-12-07T01:56:32;25.03;;;17.13;;
25982;SDS011;13773;48.868;10.730;2022-12-07T01:58:58;23.20;;;17.13;;
25982;SDS011;13773;48.868;10.730;2022-12-07T02:01:25;20.73;;;16.90;;
25982;SDS011;13773;48.868;10.730;2022-12-07T02:03:51;22.70;;;17.07;;
25982;SDS011;13773;48.868;10.730;2022-12-07T02:06:19;24.23;;;17.10;;
25982;SDS011;13773;48.868;10.730;2022-12-07T02:08:48;25.20;;;17.30;;
25982;SDS011;13773;48.868;10.730;2022-12-07T02:11:14;24.20;;;17.37;;
25982;SDS011;13773;48.868;10.730;2022-12-07T02:13:40;24.37;;;17.40;;
25982;SDS011;13773;48.868;10.730;2022-12-07T02:16:14;26.27;;;19.40;;
25982;SDS011;13773;48.868;10.730;2022-12-07T02:34:44;27.83;;;18.50;;
25982;SDS011;13773;48.868;10.730;2022-12-07T02:37:39;28.57;;;18.87;;
25982;SDS011;13773;48.868;10.730;2022-12-07T02:40:27;23.63;;;16.70;;
25982;SDS011;13773;48.868;10.730;2022-12-07T02:43:07;27.23;;;18.70;;
25982;SDS011;13773;48.868;10.730;2022-12-07T02:45:39;24.33;;;18.20;;
25982;SDS011;13773;48.868;10.730;2022-12-07T02:48:07;23.97;;;17.33;;
25982;SDS011;13773;48.868;10.730;2022-12-07T02:50:35;30.03;;;20.17;;
25982;SDS011;13773;48.868;10.730;2022-12-07T02:53:00;28.23;;;17.83;;
25982;SDS011;13773;48.868;10.730;2022-12-07T02:55:28;27.20;;;19.33;;
25982;SDS011;13773;48.868;10.730;2022-12-07T02:58:18;27.13;;;18.80;;
25982;SDS011;13773;48.868;10.730;2022-12-07T03:01:22;28.20;;;18.53;;
25982;SDS011;13773;48.868;10.730;2022-12-07T03:03:53;26.73;;;18.83;;
25982;SDS011;13773;48.868;10.730;2022-12-07T03:06:31;25.80;;;18.23;;
25982;SDS011;13773;48.868;10.730;2022-12-07T03:11:46;26.03;;;18.97;;
25982;SDS011;13773;48.868;10.730;2022-12-07T03:14:17;29.60;;;18.43;;
25982;SDS011;13773;48.868;10.730;2022-12-07T03:16:52;26.03;;;17.47;;
25982;SDS011;13773;48.868;10.730;2022-12-07T03:19:24;27.53;;;18.70;;
25982;SDS011;13773;48.868;10.730;2022-12-07T03:22:02;28.13;;;17.73;;
25982;SDS011;13773;48.868;10.730;2022-12-07T03:24:34;26.63;;;19.20;;
25982;SDS011;13773;48.868;10.730;2022-12-07T03:27:25;27.17;;;18.33;;
25982;SDS011;13773;48.868;10.730;2022-12-07T03:30:03;28.67;;;19.97;;
25982;SDS011;13773;48.868;10.730;2022-12-07T03:32:36;26.13;;;18.67;;
25982;SDS011;13773;48.868;10.730;2022-12-07T03:42:55;28.57;;;19.53;;
25982;SDS011;13773;48.868;10.730;2022-12-07T03:45:25;26.87;;;19.20;;
25982;SDS011;13773;48.868;10.730;2022-12-07T03:51:21;29.27;;;18.97;;
25982;SDS011;13773;48.868;10.730;2022-12-07T03:54:19;30.27;;;18.77;;
25982;SDS011;13773;48.868;10.730;2022-12-07T03:56:47;29.80;;;19.20;;
25982;SDS011;13773;48.868;10.730;2022-12-07T03:59:14;28.57;;;19.87;;
25982;SDS011;13773;48.868;10.730;2022-12-07T04:01:41;32.53;;;20.83;;
25982;SDS011;13773;48.868;10.730;2022-12-07T04:04:10;28.27;;;19.93;;
25982;SDS011;13773;48.868;10.730;2022-12-07T04:06:36;30.00;;;19.87;;
25982;SDS011;13773;48.868;10.730;2022-12-07T04:09:02;27.67;;;18.60;;
25982;SDS011;13773;48.868;10.730;2022-12-07T04:11:28;30.67;;;19.47;;
25982;SDS011;13773;48.868;10.730;2022-12-07T04:13:54;28.93;;;18.33;;
25982;SDS011;13773;48.868;10.730;2022-12-07T04:16:38;30.80;;;19.07;;
25982;SDS011;13773;48.868;10.730;2022-12-07T04:19:03;31.00;;;20.20;;
25982;SDS011;13773;48.868;10.730;2022-12-07T04:21:29;29.93;;;18.77;;
25982;SDS011;13773;48.868;10.730;2022-12-07T04:23:55;32.80;;;19.33;;
25982;SDS011;13773;48.868;10.730;2022-12-07T04:26:21;28.67;;;18.37;;
25982;SDS011;13773;48.868;10.730;2022-12-07T04:28:46;32.00;;;21.17;;
25982;SDS011;13773;48.868;10.730;2022-12-07T04:31:12;31.23;;;20.53;;
25982;SDS011;13773;48.868;10.730;2022-12-07T04:33:38;31.60;;;19.37;;
25982;SDS011;13773;48.868;10.730;2022-12-07T04:36:03;30.63;;;19.60;;
25982;SDS011;13773;48.868;10.730;2022-12-07T04:38:30;30.17;;;19.40;;
25982;SDS011;13773;48.868;10.730;2022-12-07T04:40:55;31.60;;;19.53;;
25982;SDS011;13773;48.868;10.730;2022-12-07T04:43:21;31.73;;;19.17;;
25982;SDS011;13773;48.868;10.730;2022-12-07T04:45:47;30.50;;;18.77;;
25982;SDS011;13773;48.868;10.730;2022-12-07T04:48:13;31.00;;;19.63;;
25982;SDS011;13773;48.868;10.730;2022-12-07T04:50:39;34.93;;;21.00;;
25982;SDS011;13773;48.868;10.730;2022-12-07T04:53:05;33.40;;;21.30;;
25982;SDS011;13773;48.868;10.730;2022-12-07T04:55:30;34.50;;;20.50;;
25982;SDS011;13773;48.868;10.730;2022-12-07T04:57:56;38.57;;;21.67;;
25982;SDS011;13773;48.868;10.730;2022-12-07T05:00:22;38.93;;;21.07;;
25982;SDS011;13773;48.868;10.730;2022-12-07T05:02:48;36.40;;;20.97;;
25982;SDS011;13773;48.868;10.730;2022-12-07T05:05:13;35.73;;;20.97;;
25982;SDS011;13773;48.868;10.730;2022-12-07T05:07:39;42.37;;;22.67;;
25982;SDS011;13773;48.868;10.730;2022-12-07T05:10:05;38.37;;;21.13;;
25982;SDS011;13773;48.868;10.730;2022-12-07T05:12:31;36.10;;;21.07;;
25982;SDS011;13773;48.868;10.730;2022-12-07T05:14:57;36.17;;;20.73;;
25982;SDS011;13773;48.868;10.730;2022-12-07T05:17:22;39.73;;;19.23;;
25982;SDS011;13773;48.868;10.730;2022-12-07T05:19:48;32.93;;;19.87;;
25982;SDS011;13773;48.868;10.730;2022-12-07T05:22:14;32.40;;;18.97;;
25982;SDS011;13773;48.868;10.730;2022-12-07T05:24:40;34.80;;;20.10;;
25982;SDS011;13773;48.868;10.730;2022-12-07T05:27:06;32.73;;;19.97;;
25982;SDS011;13773;48.868;10.730;2022-12-07T05:29:31;40.47;;;22.67;;
25982;SDS011;13773;48.868;10.730;2022-12-07T05:31:57;36.70;;;20.10;;
25982;SDS011;13773;48.868;10.730;2022-12-07T05:34:23;36.60;;;20.83;;
25982;SDS011;13773;48.868;10.730;2022-12-07T05:36:48;40.87;;;21.20;;
25982;SDS011;13773;48.868;10.730;2022-12-07T05:39:15;45.70;;;22.70;;
25982;SDS011;13773;48.868;10.730;2022-12-07T05:41:41;39.93;;;21.37;;
25982;SDS011;13773;48.868;10.730;2022-12-07T05:44:25;42.80;;;22.33;;
25982;SDS011;13773;48.868;10.730;2022-12-07T05:46:51;53.50;;;29.37;;
25982;SDS011;13773;48.868;10.730;2022-12-07T05:49:16;50.50;;;24.93;;
25982;SDS011;13773;48.868;10.730;2022-12-07T05:51:42;47.13;;;24.33;;
25982;SDS011;13773;48.868;10.730;2022-12-07T05:54:08;46.90;;;25.27;;
25982;SDS011;13773;48.868;10.730;2022-12-07T05:56:34;46.17;;;24.53;;
25982;SDS011;13773;48.868;10.730;2022-12-07T05:58:59;43.27;;;23.33;;
25982;SDS011;13773;48.868;10.730;2022-12-07T06:01:43;40.57;;;22.13;;
25982;SDS011;13773;48.868;10.730;2022-12-07T06:04:09;44.90;;;24.33;;
25982;SDS011;13773;48.868;10.730;2022-12-07T06:06:35;47.33;;;25.77;;
25982;SDS011;13773;48.868;10.730;2022-12-07T06:09:01;46.53;;;24.93;;
25982;SDS011;13773;48.868;10.730;2022-12-07T06:11:27;42.50;;;23.83;;
25982;SDS011;13773;48.868;10.730;2022-12-07T06:14:11;41.70;;;23.03;;
25982;SDS011;13773;48.868;10.730;2022-12-07T06:16:37;43.00;;;23.77;;
25982;SDS011;13773;48.868;10.730;2022-12-07T06:19:03;42.20;;;23.40;;
25982;SDS011;13773;48.868;10.730;2022-12-07T06:21:29;51.10;;;28.10;;
25982;SDS011;13773;48.868;10.730;2022-12-07T06:23:55;43.20;;;26.43;;
25982;SDS011;13773;48.868;10.730;2022-12-07T06:26:21;45.93;;;25.87;;
25982;SDS011;13773;48.868;10.730;2022-12-07T06:28:46;39.07;;;23.97;;
25982;SDS011;13773;48.868;10.730;2022-12-07T06:31:12;41.33;;;24.23;;
25982;SDS011;13773;48.868;10.730;2022-12-07T06:33:38;43.40;;;23.27;;
25982;SDS011;13773;48.868;10.730;2022-12-07T06:36:03;44.67;;;25.43;;
25982;SDS011;13773;48.868;10.730;2022-12-07T06:38:29;44.97;;;25.47;;
25982;SDS011;13773;48.868;10.730;2022-12-07T06:40:55;42.30;;;24.33;;
25982;SDS011;13773;48.868;10.730;2022-12-07T06:43:21;37.97;;;22.67;;
25982;SDS011;13773;48.868;10.730;2022-12-07T06:45:47;39.80;;;24.23;;
25982;SDS011;13773;48.868;10.730;2022-12-07T06:48:12;41.37;;;23.87;;
25982;SDS011;13773;48.868;10.730;2022-12-07T06:50:39;40.37;;;24.27;;
25982;SDS011;13773;48.868;10.730;2022-12-07T06:53:04;43.27;;;25.37;;
25982;SDS011;13773;48.868;10.730;2022-12-07T06:55:30;39.70;;;24.47;;
25982;SDS011;13773;48.868;10.730;2022-12-07T06:57:56;42.20;;;24.90;;
25982;SDS011;13773;48.868;10.730;2022-12-07T07:00:22;41.50;;;24.30;;
25982;SDS011;13773;48.868;10.730;2022-12-07T07:02:48;40.97;;;25.23;;
25982;SDS011;13773;48.868;10.730;2022-12-07T07:05:14;39.50;;;23.40;;
25982;SDS011;13773;48.868;10.730;2022-12-07T07:07:41;38.80;;;23.80;;
25982;SDS011;13773;48.868;10.730;2022-12-07T07:10:07;41.97;;;24.33;;
25982;SDS011;13773;48.868;10.730;2022-12-07T07:12:33;40.87;;;25.07;;
25982;SDS011;13773;48.868;10.730;2022-12-07T07:14:58;41.17;;;23.33;;
25982;SDS011;13773;48.868;10.730;2022-12-07T07:17:24;38.67;;;23.23;;
25982;SDS011;13773;48.868;10.730;2022-12-07T07:19:50;37.80;;;22.97;;
25982;SDS011;13773;48.868;10.730;2022-12-07T07:22:15;36.57;;;22.90;;
25982;SDS011;13773;48.868;10.730;2022-12-07T07:24:41;37.80;;;22.17;;
25982;SDS011;13773;48.868;10.730;2022-12-07T07:27:07;39.90;;;23.20;;
25982;SDS011;13773;48.868;10.730;2022-12-07T07:29:32;39.47;;;23.70;;
25982;SDS011;13773;48.868;10.730;2022-12-07T07:31:59;35.63;;;23.70;;
25982;SDS011;13773;48.868;10.730;2022-12-07T07:34:25;36.40;;;22.93;;
25982;SDS011;13773;48.868;10.730;2022-12-07T07:36:51;34.30;;;22.50;;
25982;SDS011;13773;48.868;10.730;2022-12-07T07:39:17;39.27;;;23.20;;
25982;SDS011;13773;48.868;10.730;2022-12-07T07:41:42;36.60;;;21.93;;
25982;SDS011;13773;48.868;10.730;2022-12-07T07:44:09;32.97;;;21.23;;
25982;SDS011;13773;48.868;10.730;2022-12-07T07:46:35;35.83;;;22.47;;
25982;SDS011;13773;48.868;10.730;2022-12-07T07:49:01;31.73;;;20.83;;
25982;SDS011;13773;48.868;10.730;2022-12-07T07:51:26;30.03;;;20.43;;
25982;SDS011;13773;48.868;10.730;2022-12-07T07:53:52;34.70;;;21.60;;
25982;SDS011;13773;48.868;10.730;2022-12-07T07:56:18;31.97;;;21.20;;
25982;SDS011;13773;48.868;10.730;2022-12-07T07:58:43;29.43;;;20.53;;
25982;SDS011;13773;48.868;10.730;2022-12-07T08:01:09;33.77;;;21.67;;
25982;SDS011;13773;48.868;10.730;2022-12-07T08:03:35;33.47;;;22.60;;
25982;SDS011;13773;48.868;10.730;2022-12-07T08:06:02;30.53;;;22.23;;
25982;SDS011;13773;48.868;10.730;2022-12-07T08:08:28;32.57;;;22.13;;
25982;SDS011;13773;48.868;10.730;2022-12-07T08:10:54;29.67;;;20.53;;
25982;SDS011;13773;48.868;10.730;2022-12-07T08:13:20;33.93;;;21.60;;
25982;SDS011;13773;48.868;10.730;2022-12-07T08:15:46;27.93;;;19.17;;
25982;SDS011;13773;48.868;10.730;2022-12-07T08:18:13;29.37;;;19.70;;
25982;SDS011;13773;48.868;10.730;2022-12-07T08:20:40;34.83;;;22.30;;
25982;SDS011;13773;48.868;10.730;2022-12-07T08:23:07;28.87;;;20.27;;
25982;SDS011;13773;48.868;10.730;2022-12-07T08:25:34;30.00;;;20.00;;
25982;SDS011;13773;48.868;10.730;2022-12-07T08:28:00;27.50;;;19.77;;
25982;SDS011;13773;48.868;10.730;2022-12-07T08:30:26;27.97;;;19.97;;
25982;SDS011;13773;48.868;10.730;2022-12-07T08:32:53;26.50;;;19.70;;
25982;SDS011;13773;48.868;10.730;2022-12-07T08:35:19;28.60;;;20.50;;
25982;SDS011;13773;48.868;10.730;2022-12-07T08:37:46;28.13;;;19.70;;
25982;SDS011;13773;48.868;10.730;2022-12-07T08:40:12;28.23;;;20.27;;
25982;SDS011;13773;48.868;10.730;2022-12-07T08:42:43;28.10;;;18.93;;
25982;SDS011;13773;48.868;10.730;2022-12-07T08:45:18;29.63;;;21.37;;
25982;SDS011;13773;48.868;10.730;2022-12-07T08:47:51;28.73;;;20.47;;
25982;SDS011;13773;48.868;10.730;2022-12-07T08:50:27;26.43;;;19.90;;
25982;SDS011;13773;48.868;10.730;2022-12-07T08:52:54;31.83;;;22.47;;
25982;SDS011;13773;48.868;10.730;2022-12-07T08:55:22;32.33;;;23.40;;
25982;SDS011;13773;48.868;10.730;2022-12-07T08:57:48;29.07;;;20.50;;
25982;SDS011;13773;48.868;10.730;2022-12-07T09:00:14;27.60;;;20.57;;
25982;SDS011;13773;48.868;10.730;2022-12-07T09:02:43;32.23;;;20.87;;
25982;SDS011;13773;48.868;10.730;2022-12-07T09:05:09;26.60;;;19.30;;
25982;SDS011;13773;48.868;10.730;2022-12-07T09:07:35;31.67;;;21.20;;
25982;SDS011;13773;48.868;10.730;2022-12-07T09:10:02;31.47;;;20.90;;
25982;SDS011;13773;48.868;10.730;2022-12-07T09:12:29;28.53;;;19.63;;
25982;SDS011;13773;48.868;10.730;2022-12-07T09:14:55;26.07;;;18.90;;
25982;SDS011;13773;48.868;10.730;2022-12-07T09:17:21;21.07;;;15.47;;
25982;SDS011;13773;48.868;10.730;2022-12-07T09:19:47;21.50;;;15.87;;
25982;SDS011;13773;48.868;10.730;2022-12-07T09:22:12;26.03;;;17.57;;
25982;SDS011;13773;48.868;10.730;2022-12-07T09:24:38;29.07;;;19.77;;
25982;SDS011;13773;48.868;10.730;2022-12-07T09:27:04;25.90;;;17.97;;
25982;SDS011;13773;48.868;10.730;2022-12-07T09:29:30;26.07;;;17.70;;
25982;SDS011;13773;48.868;10.730;2022-12-07T09:31:56;23.20;;;16.63;;
25982;SDS011;13773;48.868;10.730;2022-12-07T09:34:21;26.03;;;20.17;;
25982;SDS011;13773;48.868;10.730;2022-12-07T09:36:47;24.43;;;18.50;;
25982;SDS011;13773;48.868;10.730;2022-12-07T09:39:16;24.70;;;17.50;;
25982;SDS011;13773;48.868;10.730;2022-12-07T09:41:47;22.03;;;16.37;;
25982;SDS011;13773;48.868;10.730;2022-12-07T09:44:14;22.47;;;15.30;;
25982;SDS011;13773;48.868;10.730;2022-12-07T09:46:49;19.63;;;14.87;;
25982;SDS011;13773;48.868;10.730;2022-12-07T09:49:22;20.60;;;14.53;;
25982;SDS011;13773;48.868;10.730;2022-12-07T09:52:00;17.37;;;14.37;;
25982;SDS011;13773;48.868;10.730;2022-12-07T09:54:34;16.57;;;13.90;;
25982;SDS011;13773;48.868;10.730;2022-12-07T09:57:04;17.53;;;13.23;;
25982;SDS011;13773;48.868;10.730;2022-12-07T09:59:30;17.37;;;14.33;;
25982;SDS011;13773;48.868;10.730;2022-12-07T10:01:55;16.13;;;12.33;;
25982;SDS011;13773;48.868;10.730;2022-12-07T10:04:48;13.53;;;10.67;;
25982;SDS011;13773;48.868;10.730;2022-12-07T10:07:14;14.13;;;10.57;;
25982;SDS011;13773;48.868;10.730;2022-12-07T10:09:39;14.80;;;11.27;;
25982;SDS011;13773;48.868;10.730;2022-12-07T10:12:06;15.13;;;11.03;;
25982;SDS011;13773;48.868;10.730;2022-12-07T10:14:35;15.67;;;12.20;;
25982;SDS011;13773;48.868;10.730;2022-12-07T10:17:24;17.43;;;12.47;;
25982;SDS011;13773;48.868;10.730;2022-12-07T10:19:51;13.93;;;11.10;;
25982;SDS011;13773;48.868;10.730;2022-12-07T10:22:17;13.47;;;9.97;;
25982;SDS011;13773;48.868;10.730;2022-12-07T10:24:44;16.10;;;11.57;;
25982;SDS011;13773;48.868;10.730;2022-12-07T10:27:19;14.67;;;10.73;;
25982;SDS011;13773;48.868;10.730;2022-12-07T10:29:54;14.90;;;10.87;;
25982;SDS011;13773;48.868;10.730;2022-12-07T10:37:49;11.60;;;9.80;;
25982;SDS011;13773;48.868;10.730;2022-12-07T10:40:24;14.00;;;10.20;;
25982;SDS011;13773;48.868;10.730;2022-12-07T10:43:14;10.63;;;8.63;;
25982;SDS011;13773;48.868;10.730;2022-12-07T10:54:30;10.13;;;7.87;;
25982;SDS011;13773;48.868;10.730;2022-12-07T11:02:25;9.70;;;7.50;;
25982;SDS011;13773;48.868;10.730;2022-12-07T11:21:57;10.20;;;7.27;;
25982;SDS011;13773;48.868;10.730;2022-12-07T11:24:27;9.87;;;7.93;;
25982;SDS011;13773;48.868;10.730;2022-12-07T11:30:08;9.80;;;7.77;;
25982;SDS011;13773;48.868;10.730;2022-12-07T11:35:52;9.23;;;6.60;;
25982;SDS011;13773;48.868;10.730;2022-12-07T11:41:17;9.30;;;7.53;;
25982;SDS011;13773;48.868;10.730;2022-12-07T11:46:54;11.23;;;7.30;;
25982;SDS011;13773;48.868;10.730;2022-12-07T11:49:53;10.37;;;8.07;;
25982;SDS011;13773;48.868;10.730;2022-12-07T11:55:29;10.47;;;8.40;;
25982;SDS011;13773;48.868;10.730;2022-12-07T11:58:12;11.43;;;8.53;;
25982;SDS011;13773;48.868;10.730;2022-12-07T12:00:55;9.77;;;7.77;;
25982;SDS011;13773;48.868;10.730;2022-12-07T12:04:25;10.73;;;7.73;;
25982;SDS011;13773;48.868;10.730;2022-12-07T12:06:37;10.13;;;7.30;;
25982;SDS011;13773;48.868;10.730;2022-12-07T12:09:14;12.90;;;7.60;;
25982;SDS011;13773;48.868;10.730;2022-12-07T12:23:04;11.13;;;7.93;;
25982;SDS011;13773;48.868;10.730;2022-12-07T12:28:10;11.97;;;8.20;;
25982;SDS011;13773;48.868;10.730;2022-12-07T12:30:47;10.77;;;7.23;;
25982;SDS011;13773;48.868;10.730;2022-12-07T12:33:52;9.17;;;6.77;;
25982;SDS011;13773;48.868;10.730;2022-12-07T12:39:09;10.67;;;7.43;;
25982;SDS011;13773;48.868;10.730;2022-12-07T12:55:00;12.17;;;7.73;;
25982;SDS011;13773;48.868;10.730;2022-12-07T12:57:27;9.87;;;7.10;;
25982;SDS011;13773;48.868;10.730;2022-12-07T13:02:34;11.67;;;8.43;;
25982;SDS011;13773;48.868;10.730;2022-12-07T13:15:55;10.30;;;7.80;;
25982;SDS011;13773;48.868;10.730;2022-12-07T13:20:58;10.83;;;7.80;;
25982;SDS011;13773;48.868;10.730;2022-12-07T13:29:13;12.93;;;8.70;;
25982;SDS011;13773;48.868;10.730;2022-12-07T13:34:31;11.53;;;7.53;;
25982;SDS011;13773;48.868;10.730;2022-12-07T13:39:59;9.33;;;7.07;;
25982;SDS011;13773;48.868;10.730;2022-12-07T13:42:41;10.60;;;7.80;;
25982;SDS011;13773;48.868;10.730;2022-12-07T13:45:20;9.30;;;7.07;;
25982;SDS011;13773;48.868;10.730;2022-12-07T13:48:08;9.27;;;7.20;;
25982;SDS011;13773;48.868;10.730;2022-12-07T13:50:52;10.87;;;7.70;;
25982;SDS011;13773;48.868;10.730;2022-12-07T13:53:19;13.23;;;8.37;;
25982;SDS011;13773;48.868;10.730;2022-12-07T13:55:46;11.50;;;8.23;;
25982;SDS011;13773;48.868;10.730;2022-12-07T13:58:12;11.33;;;7.80;;
25982;SDS011;13773;48.868;10.730;2022-12-07T14:00:39;11.27;;;7.87;;
25982;SDS011;13773;48.868;10.730;2022-12-07T14:05:38;11.07;;;8.60;;
25982;SDS011;13773;48.868;10.730;2022-12-07T14:08:21;11.47;;;8.33;;
25982;SDS011;13773;48.868;10.730;2022-12-07T14:13:32;12.53;;;8.60;;
25982;SDS011;13773;48.868;10.730;2022-12-07T14:16:01;9.40;;;7.73;;
25982;SDS011;13773;48.868;10.730;2022-12-07T14:18:41;11.60;;;8.17;;
25982;SDS011;13773;48.868;10.730;2022-12-07T14:23:36;12.67;;;10.50;;
25982;SDS011;13773;48.868;10.730;2022-12-07T14:28:43;11.50;;;9.27;;
25982;SDS011;13773;48.868;10.730;2022-12-07T14:31:17;14.20;;;9.93;;
25982;SDS011;13773;48.868;10.730;2022-12-07T14:33:46;14.33;;;9.50;;
25982;SDS011;13773;48.868;10.730;2022-12-07T14:36:12;11.87;;;9.23;;
25982;SDS011;13773;48.868;10.730;2022-12-07T14:38:39;13.13;;;9.87;;
25982;SDS011;13773;48.868;10.730;2022-12-07T14:41:14;12.07;;;9.77;;
25982;SDS011;13773;48.868;10.730;2022-12-07T14:44:07;13.73;;;10.67;;
25982;SDS011;13773;48.868;10.730;2022-12-07T14:46:37;13.10;;;9.40;;
25982;SDS011;13773;48.868;10.730;2022-12-07T14:49:02;12.73;;;9.70;;
25982;SDS011;13773;48.868;10.730;2022-12-07T14:51:28;12.57;;;9.70;;
25982;SDS011;13773;48.868;10.730;2022-12-07T14:53:54;11.07;;;9.30;;
25982;SDS011;13773;48.868;10.730;2022-12-07T14:56:20;11.93;;;9.90;;
25982;SDS011;13773;48.868;10.730;2022-12-07T14:58:45;14.07;;;10.10;;
25982;SDS011;13773;48.868;10.730;2022-12-07T15:01:13;11.37;;;9.33;;
25982;SDS011;13773;48.868;10.730;2022-12-07T15:03:39;13.50;;;9.77;;
25982;SDS011;13773;48.868;10.730;2022-12-07T15:06:05;15.80;;;12.00;;
25982;SDS011;13773;48.868;10.730;2022-12-07T15:08:31;16.03;;;11.67;;
25982;SDS011;13773;48.868;10.730;2022-12-07T15:10:57;14.53;;;10.20;;
25982;SDS011;13773;48.868;10.730;2022-12-07T15:13:23;15.93;;;12.50;;
25982;SDS011;13773;48.868;10.730;2022-12-07T15:16:11;16.93;;;12.70;;
25982;SDS011;13773;48.868;10.730;2022-12-07T15:18:39;14.53;;;11.90;;
25982;SDS011;13773;48.868;10.730;2022-12-07T15:21:09;15.37;;;10.10;;
25982;SDS011;13773;48.868;10.730;2022-12-07T15:23:38;13.47;;;10.03;;
25982;SDS011;13773;48.868;10.730;2022-12-07T15:26:04;15.40;;;11.17;;
25982;SDS011;13773;48.868;10.730;2022-12-07T15:28:30;14.50;;;10.60;;
25982;SDS011;13773;48.868;10.730;2022-12-07T15:30:55;14.63;;;11.80;;
25982;SDS011;13773;48.868;10.730;2022-12-07T15:33:21;15.37;;;12.77;;
25982;SDS011;13773;48.868;10.730;2022-12-07T15:35:47;14.83;;;12.37;;
25982;SDS011;13773;48.868;10.730;2022-12-07T15:38:13;14.20;;;11.33;;
25982;SDS011;13773;48.868;10.730;2022-12-07T15:40:38;13.73;;;10.30;;
25982;SDS011;13773;48.868;10.730;2022-12-07T15:43:04;14.53;;;12.13;;
25982;SDS011;13773;48.868;10.730;2022-12-07T15:45:50;14.40;;;11.23;;
25982;SDS011;13773;48.868;10.730;2022-12-07T15:48:16;12.60;;;10.90;;
25982;SDS011;13773;48.868;10.730;2022-12-07T15:50:42;14.23;;;11.30;;
25982;SDS011;13773;48.868;10.730;2022-12-07T15:53:07;14.63;;;12.40;;
25982;SDS011;13773;48.868;10.730;2022-12-07T15:55:33;14.50;;;11.43;;
25982;SDS011;13773;48.868;10.730;2022-12-07T15:57:59;13.13;;;10.93;;
25982;SDS011;13773;48.868;10.730;2022-12-07T16:00:26;12.57;;;10.50;;
25982;SDS011;13773;48.868;10.730;2022-12-07T16:02:51;13.93;;;10.00;;
25982;SDS011;13773;48.868;10.730;2022-12-07T16:05:17;11.63;;;10.20;;
25982;SDS011;13773;48.868;10.730;2022-12-07T16:07:43;13.37;;;11.13;;
25982;SDS011;13773;48.868;10.730;2022-12-07T16:10:11;12.60;;;10.87;;
25982;SDS011;13773;48.868;10.730;2022-12-07T16:12:37;14.77;;;11.47;;
25982;SDS011;13773;48.868;10.730;2022-12-07T16:15:02;12.97;;;11.30;;
25982;SDS011;13773;48.868;10.730;2022-12-07T16:17:29;16.57;;;11.73;;
25982;SDS011;13773;48.868;10.730;2022-12-07T16:19:54;15.13;;;11.27;;
25982;SDS011;13773;48.868;10.730;2022-12-07T16:22:20;14.27;;;10.93;;
25982;SDS011;13773;48.868;10.730;2022-12-07T16:24:46;15.90;;;11.93;;
25982;SDS011;13773;48.868;10.730;2022-12-07T16:27:11;14.10;;;11.53;;
25982;SDS011;13773;48.868;10.730;2022-12-07T16:29:38;18.43;;;12.43;;
25982;SDS011;13773;48.868;10.730;2022-12-07T16:32:03;15.93;;;12.27;;
25982;SDS011;13773;48.868;10.730;2022-12-07T16:34:29;16.77;;;13.30;;
25982;SDS011;13773;48.868;10.730;2022-12-07T16:36:55;15.80;;;12.20;;
25982;SDS011;13773;48.868;10.730;2022-12-07T16:39:20;15.60;;;11.60;;
25982;SDS011;13773;48.868;10.730;2022-12-07T16:41:46;16.70;;;14.50;;
25982;SDS011;13773;48.868;10.730;2022-12-07T16:44:12;17.97;;;15.00;;
25982;SDS011;13773;48.868;10.730;2022-12-07T16:46:39;18.23;;;14.43;;
25982;SDS011;13773;48.868;10.730;2022-12-07T16:49:04;16.00;;;12.77;;
25982;SDS011;13773;48.868;10.730;2022-12-07T16:51:30;15.17;;;11.77;;
25982;SDS011;13773;48.868;10.730;2022-12-07T16:53:56;16.77;;;12.83;;